sensor_id;sensor_type;location;lat;lon;timestamp;temperature;humidity
13328;DHT22;6733;51.044;3.746;2023-07-13T00:00:47;16.90;99.90
13328;DHT22;6733;51.044;3.746;2023-07-13T00:03:13;16.90;99.90
13328;DHT22;6733;51.044;3.746;2023-07-13T00:05:40;16.90;99.90
13328;DHT22;6733;51.044;3.746;2023-07-13T00:08:07;16.90;99.90
13328;DHT22;6733;51.044;3.746;2023-07-13T00:10:38;16.90;99.90
13328;DHT22;6733;51.044;3.746;2023-07-13T00:13:04;16.80;99.90
13328;DHT22;6733;51.044;3.746;2023-07-13T00:15:31;16.80;99.90
13328;DHT22;6733;51.044;3.746;2023-07-13T00:17:57;16.80;99.90
13328;DHT22;6733;51.044;3.746;2023-07-13T00:20:24;16.80;99.90
13328;DHT22;6733;51.044;3.746;2023-07-13T00:22:52;16.70;99.90
13328;DHT22;6733;51.044;3.746;2023-07-13T00:25:22;16.70;99.90
13328;DHT22;6733;51.044;3.746;2023-07-13T00:27:51;16.70;99.90
13328;DHT22;6733;51.044;3.746;2023-07-13T00:30:18;16.70;99.90
13328;DHT22;6733;51.044;3.746;2023-07-13T00:32:44;16.70;99.90
13328;DHT22;6733;51.044;3.746;2023-07-13T00:35:13;16.70;99.90
13328;DHT22;6733;51.044;3.746;2023-07-13T00:37:39;16.70;99.90
13328;DHT22;6733;51.044;3.746;2023-07-13T00:40:06;16.60;99.90
13328;DHT22;6733;51.044;3.746;2023-07-13T00:42:33;16.60;99.90
13328;DHT22;6733;51.044;3.746;2023-07-13T00:47:38;16.60;99.90
13328;DHT22;6733;51.044;3.746;2023-07-13T00:50:08;16.60;99.90
13328;DHT22;6733;51.044;3.746;2023-07-13T00:52:39;16.60;99.90
13328;DHT22;6733;51.044;3.746;2023-07-13T00:55:07;16.60;99.90
13328;DHT22;6733;51.044;3.746;2023-07-13T00:57:35;16.60;99.90
13328;DHT22;6733;51.044;3.746;2023-07-13T01:00:04;16.60;99.90
13328;DHT22;6733;51.044;3.746;2023-07-13T01:02:33;16.60;99.90
13328;DHT22;6733;51.044;3.746;2023-07-13T01:04:59;16.60;99.90
13328;DHT22;6733;51.044;3.746;2023-07-13T01:07:26;16.60;99.90
13328;DHT22;6733;51.044;3.746;2023-07-13T01:09:52;16.60;99.90
13328;DHT22;6733;51.044;3.746;2023-07-13T01:12:18;16.60;99.90
13328;DHT22;6733;51.044;3.746;2023-07-13T01:14:44;16.60;99.90
13328;DHT22;6733;51.044;3.746;2023-07-13T01:17:11;16.50;99.90
13328;DHT22;6733;51.044;3.746;2023-07-13T01:19:39;16.50;99.90
13328;DHT22;6733;51.044;3.746;2023-07-13T01:22:09;16.50;99.90
13328;DHT22;6733;51.044;3.746;2023-07-13T01:24:38;16.50;99.90
13328;DHT22;6733;51.044;3.746;2023-07-13T01:27:06;16.50;99.90
13328;DHT22;6733;51.044;3.746;2023-07-13T01:29:35;16.50;99.90
13328;DHT22;6733;51.044;3.746;2023-07-13T01:32:13;16.40;99.90
13328;DHT22;6733;51.044;3.746;2023-07-13T01:34:39;16.40;99.90
13328;DHT22;6733;51.044;3.746;2023-07-13T01:37:09;16.40;99.90
13328;DHT22;6733;51.044;3.746;2023-07-13T01:39:35;16.30;99.90
13328;DHT22;6733;51.044;3.746;2023-07-13T01:42:01;16.30;99.90
13328;DHT22;6733;51.044;3.746;2023-07-13T01:44:28;16.30;99.90
13328;DHT22;6733;51.044;3.746;2023-07-13T01:46:54;16.30;99.90
13328;DHT22;6733;51.044;3.746;2023-07-13T01:49:20;16.40;99.90
13328;DHT22;6733;51.044;3.746;2023-07-13T01:51:46;16.30;99.90
13328;DHT22;6733;51.044;3.746;2023-07-13T01:54:13;16.30;99.90
13328;DHT22;6733;51.044;3.746;2023-07-13T01:56:39;16.30;99.90
13328;DHT22;6733;51.044;3.746;2023-07-13T01:59:08;16.30;99.90
13328;DHT22;6733;51.044;3.746;2023-07-13T02:01:34;16.30;99.90
13328;DHT22;6733;51.044;3.746;2023-07-13T02:04:00;16.30;99.90
13328;DHT22;6733;51.044;3.746;2023-07-13T02:06:26;16.30;99.90
13328;DHT22;6733;51.044;3.746;2023-07-13T02:08:53;16.30;99.90
13328;DHT22;6733;51.044;3.746;2023-07-13T02:11:19;16.30;99.90
13328;DHT22;6733;51.044;3.746;2023-07-13T02:13:45;16.30;99.90
13328;DHT22;6733;51.044;3.746;2023-07-13T02:16:11;16.30;99.90
13328;DHT22;6733;51.044;3.746;2023-07-13T02:18:37;16.30;99.90
13328;DHT22;6733;51.044;3.746;2023-07-13T02:21:04;16.30;99.90
13328;DHT22;6733;51.044;3.746;2023-07-13T02:23:30;16.30;99.90
13328;DHT22;6733;51.044;3.746;2023-07-13T02:25:57;16.30;99.90
13328;DHT22;6733;51.044;3.746;2023-07-13T02:28:23;16.30;99.90
13328;DHT22;6733;51.044;3.746;2023-07-13T02:30:49;16.30;99.90
13328;DHT22;6733;51.044;3.746;2023-07-13T02:33:40;16.30;99.90
13328;DHT22;6733;51.044;3.746;2023-07-13T02:36:31;16.20;99.90
13328;DHT22;6733;51.044;3.746;2023-07-13T02:39:22;16.20;99.90
13328;DHT22;6733;51.044;3.746;2023-07-13T02:42:14;16.20;99.90
13328;DHT22;6733;51.044;3.746;2023-07-13T02:45:05;16.20;99.90
13328;DHT22;6733;51.044;3.746;2023-07-13T02:47:57;16.20;99.90
13328;DHT22;6733;51.044;3.746;2023-07-13T02:50:48;16.20;99.90
13328;DHT22;6733;51.044;3.746;2023-07-13T02:53:39;16.20;99.90
13328;DHT22;6733;51.044;3.746;2023-07-13T02:56:31;16.20;99.90
13328;DHT22;6733;51.044;3.746;2023-07-13T02:58:58;16.20;99.90
13328;DHT22;6733;51.044;3.746;2023-07-13T03:01:24;16.20;99.90
13328;DHT22;6733;51.044;3.746;2023-07-13T03:03:52;16.20;99.90
13328;DHT22;6733;51.044;3.746;2023-07-13T03:06:18;16.20;99.90
13328;DHT22;6733;51.044;3.746;2023-07-13T03:08:47;16.20;99.90
13328;DHT22;6733;51.044;3.746;2023-07-13T03:11:19;16.20;99.90
13328;DHT22;6733;51.044;3.746;2023-07-13T03:13:46;16.20;99.90
13328;DHT22;6733;51.044;3.746;2023-07-13T03:16:13;16.20;99.90
13328;DHT22;6733;51.044;3.746;2023-07-13T03:18:41;16.20;99.90
13328;DHT22;6733;51.044;3.746;2023-07-13T03:21:08;16.20;99.90
13328;DHT22;6733;51.044;3.746;2023-07-13T03:23:34;16.30;99.90
13328;DHT22;6733;51.044;3.746;2023-07-13T03:26:09;16.30;99.90
13328;DHT22;6733;51.044;3.746;2023-07-13T03:28:36;16.40;99.90
13328;DHT22;6733;51.044;3.746;2023-07-13T03:31:04;16.40;99.90
13328;DHT22;6733;51.044;3.746;2023-07-13T03:33:31;16.50;99.90
13328;DHT22;6733;51.044;3.746;2023-07-13T03:35:58;16.50;99.90
13328;DHT22;6733;51.044;3.746;2023-07-13T03:38:25;16.60;99.90
13328;DHT22;6733;51.044;3.746;2023-07-13T03:40:53;16.60;99.90
13328;DHT22;6733;51.044;3.746;2023-07-13T03:43:19;16.60;99.90
13328;DHT22;6733;51.044;3.746;2023-07-13T03:45:46;16.60;99.90
13328;DHT22;6733;51.044;3.746;2023-07-13T03:48:13;16.70;99.90
13328;DHT22;6733;51.044;3.746;2023-07-13T03:50:40;16.60;99.90
13328;DHT22;6733;51.044;3.746;2023-07-13T03:53:06;16.60;99.90
13328;DHT22;6733;51.044;3.746;2023-07-13T03:55:32;16.60;99.90
13328;DHT22;6733;51.044;3.746;2023-07-13T04:00:54;16.60;99.90
13328;DHT22;6733;51.044;3.746;2023-07-13T04:03:20;16.60;99.90
13328;DHT22;6733;51.044;3.746;2023-07-13T04:05:47;16.60;99.90
13328;DHT22;6733;51.044;3.746;2023-07-13T04:08:13;16.60;99.90
13328;DHT22;6733;51.044;3.746;2023-07-13T04:10:39;16.60;99.90
13328;DHT22;6733;51.044;3.746;2023-07-13T04:13:06;16.60;99.90
13328;DHT22;6733;51.044;3.746;2023-07-13T04:15:32;16.70;99.90
13328;DHT22;6733;51.044;3.746;2023-07-13T04:17:58;16.70;99.90
13328;DHT22;6733;51.044;3.746;2023-07-13T04:20:25;16.80;99.90
13328;DHT22;6733;51.044;3.746;2023-07-13T04:22:52;16.90;99.90
13328;DHT22;6733;51.044;3.746;2023-07-13T04:25:22;16.90;99.90
13328;DHT22;6733;51.044;3.746;2023-07-13T04:27:49;17.00;99.90
13328;DHT22;6733;51.044;3.746;2023-07-13T04:30:15;17.00;99.90
13328;DHT22;6733;51.044;3.746;2023-07-13T04:32:41;17.00;99.90
13328;DHT22;6733;51.044;3.746;2023-07-13T04:35:07;17.10;99.90
13328;DHT22;6733;51.044;3.746;2023-07-13T04:37:34;17.10;99.90
13328;DHT22;6733;51.044;3.746;2023-07-13T04:40:02;17.10;99.90
13328;DHT22;6733;51.044;3.746;2023-07-13T04:42:29;17.20;99.90
13328;DHT22;6733;51.044;3.746;2023-07-13T04:44:56;17.10;99.90
13328;DHT22;6733;51.044;3.746;2023-07-13T04:47:22;17.00;99.90
13328;DHT22;6733;51.044;3.746;2023-07-13T04:49:48;17.00;99.90
13328;DHT22;6733;51.044;3.746;2023-07-13T04:52:14;17.00;99.90
13328;DHT22;6733;51.044;3.746;2023-07-13T04:54:40;17.00;99.90
13328;DHT22;6733;51.044;3.746;2023-07-13T04:57:06;17.10;99.90
13328;DHT22;6733;51.044;3.746;2023-07-13T04:59:33;17.20;99.90
13328;DHT22;6733;51.044;3.746;2023-07-13T05:01:59;17.30;99.90
13328;DHT22;6733;51.044;3.746;2023-07-13T05:04:26;17.40;99.90
13328;DHT22;6733;51.044;3.746;2023-07-13T05:06:52;17.50;99.90
13328;DHT22;6733;51.044;3.746;2023-07-13T05:09:18;17.50;99.90
13328;DHT22;6733;51.044;3.746;2023-07-13T05:11:44;17.70;99.90
13328;DHT22;6733;51.044;3.746;2023-07-13T05:14:10;17.70;99.90
13328;DHT22;6733;51.044;3.746;2023-07-13T05:16:37;17.80;99.90
13328;DHT22;6733;51.044;3.746;2023-07-13T05:19:03;17.90;99.90
13328;DHT22;6733;51.044;3.746;2023-07-13T05:21:29;17.90;99.90
13328;DHT22;6733;51.044;3.746;2023-07-13T05:23:56;18.00;99.90
13328;DHT22;6733;51.044;3.746;2023-07-13T05:26:22;18.00;99.90
13328;DHT22;6733;51.044;3.746;2023-07-13T05:28:48;18.10;99.90
13328;DHT22;6733;51.044;3.746;2023-07-13T05:31:14;18.10;99.90
13328;DHT22;6733;51.044;3.746;2023-07-13T05:33:40;18.20;99.90
13328;DHT22;6733;51.044;3.746;2023-07-13T05:36:07;18.30;99.90
13328;DHT22;6733;51.044;3.746;2023-07-13T05:38:33;18.40;99.90
13328;DHT22;6733;51.044;3.746;2023-07-13T05:41:00;18.40;99.90
13328;DHT22;6733;51.044;3.746;2023-07-13T05:43:26;18.50;99.90
13328;DHT22;6733;51.044;3.746;2023-07-13T05:45:54;18.60;99.90
13328;DHT22;6733;51.044;3.746;2023-07-13T05:48:20;18.70;99.90
13328;DHT22;6733;51.044;3.746;2023-07-13T05:50:47;18.80;99.90
13328;DHT22;6733;51.044;3.746;2023-07-13T05:53:13;18.90;99.90
13328;DHT22;6733;51.044;3.746;2023-07-13T05:55:47;18.90;99.90
13328;DHT22;6733;51.044;3.746;2023-07-13T05:58:13;19.00;99.90
13328;DHT22;6733;51.044;3.746;2023-07-13T06:00:40;19.10;99.90
13328;DHT22;6733;51.044;3.746;2023-07-13T06:03:06;19.20;99.90
13328;DHT22;6733;51.044;3.746;2023-07-13T06:05:34;19.30;99.90
13328;DHT22;6733;51.044;3.746;2023-07-13T06:08:00;19.30;99.90
13328;DHT22;6733;51.044;3.746;2023-07-13T06:10:26;19.40;99.90
13328;DHT22;6733;51.044;3.746;2023-07-13T06:12:52;19.40;99.90
13328;DHT22;6733;51.044;3.746;2023-07-13T06:15:19;19.40;99.90
13328;DHT22;6733;51.044;3.746;2023-07-13T06:17:45;19.40;99.90
13328;DHT22;6733;51.044;3.746;2023-07-13T06:20:11;19.40;99.90
13328;DHT22;6733;51.044;3.746;2023-07-13T06:22:37;19.50;99.90
13328;DHT22;6733;51.044;3.746;2023-07-13T06:25:03;19.60;99.90
13328;DHT22;6733;51.044;3.746;2023-07-13T06:27:30;19.70;99.90
13328;DHT22;6733;51.044;3.746;2023-07-13T06:29:56;19.80;99.90
13328;DHT22;6733;51.044;3.746;2023-07-13T06:32:22;19.80;99.90
13328;DHT22;6733;51.044;3.746;2023-07-13T06:34:48;19.70;99.90
13328;DHT22;6733;51.044;3.746;2023-07-13T06:37:17;19.70;99.90
13328;DHT22;6733;51.044;3.746;2023-07-13T06:39:44;19.70;99.90
13328;DHT22;6733;51.044;3.746;2023-07-13T06:42:10;19.90;99.90
13328;DHT22;6733;51.044;3.746;2023-07-13T06:44:37;20.00;99.90
13328;DHT22;6733;51.044;3.746;2023-07-13T06:47:03;20.00;99.90
13328;DHT22;6733;51.044;3.746;2023-07-13T06:49:29;20.30;99.90
13328;DHT22;6733;51.044;3.746;2023-07-13T06:51:55;20.20;99.90
13328;DHT22;6733;51.044;3.746;2023-07-13T06:54:21;20.00;99.90
13328;DHT22;6733;51.044;3.746;2023-07-13T06:56:47;20.00;99.90
13328;DHT22;6733;51.044;3.746;2023-07-13T06:59:14;20.00;99.90
13328;DHT22;6733;51.044;3.746;2023-07-13T07:01:40;20.00;99.90
13328;DHT22;6733;51.044;3.746;2023-07-13T07:04:06;19.90;99.90
13328;DHT22;6733;51.044;3.746;2023-07-13T07:06:32;19.90;99.90
13328;DHT22;6733;51.044;3.746;2023-07-13T07:08:58;19.80;99.90
13328;DHT22;6733;51.044;3.746;2023-07-13T07:11:25;20.00;99.90
13328;DHT22;6733;51.044;3.746;2023-07-13T07:13:52;20.20;99.90
13328;DHT22;6733;51.044;3.746;2023-07-13T07:16:20;20.30;99.90
13328;DHT22;6733;51.044;3.746;2023-07-13T07:18:47;20.30;99.90
13328;DHT22;6733;51.044;3.746;2023-07-13T07:21:13;20.50;99.90
13328;DHT22;6733;51.044;3.746;2023-07-13T07:23:40;20.50;99.90
13328;DHT22;6733;51.044;3.746;2023-07-13T07:26:06;20.70;99.90
13328;DHT22;6733;51.044;3.746;2023-07-13T07:28:34;20.70;99.90
13328;DHT22;6733;51.044;3.746;2023-07-13T07:31:00;20.80;99.90
13328;DHT22;6733;51.044;3.746;2023-07-13T07:33:26;21.00;99.90
13328;DHT22;6733;51.044;3.746;2023-07-13T07:35:53;21.10;99.90
13328;DHT22;6733;51.044;3.746;2023-07-13T07:38:19;21.20;99.90
13328;DHT22;6733;51.044;3.746;2023-07-13T07:40:45;21.50;99.90
13328;DHT22;6733;51.044;3.746;2023-07-13T07:43:12;21.80;99.90
13328;DHT22;6733;51.044;3.746;2023-07-13T07:45:39;22.10;99.90
13328;DHT22;6733;51.044;3.746;2023-07-13T07:48:06;22.30;99.90
13328;DHT22;6733;51.044;3.746;2023-07-13T07:50:33;22.30;99.90
13328;DHT22;6733;51.044;3.746;2023-07-13T07:52:59;22.50;99.90
13328;DHT22;6733;51.044;3.746;2023-07-13T07:55:28;22.50;99.90
13328;DHT22;6733;51.044;3.746;2023-07-13T07:57:56;23.00;99.90
13328;DHT22;6733;51.044;3.746;2023-07-13T08:00:22;23.60;99.90
13328;DHT22;6733;51.044;3.746;2023-07-13T08:02:48;23.80;99.90
13328;DHT22;6733;51.044;3.746;2023-07-13T08:05:15;24.30;99.90
13328;DHT22;6733;51.044;3.746;2023-07-13T08:07:41;23.70;99.90
13328;DHT22;6733;51.044;3.746;2023-07-13T08:10:08;23.20;99.90
13328;DHT22;6733;51.044;3.746;2023-07-13T08:12:39;23.40;99.90
13328;DHT22;6733;51.044;3.746;2023-07-13T08:15:09;23.60;99.90
13328;DHT22;6733;51.044;3.746;2023-07-13T08:17:35;24.30;99.90
13328;DHT22;6733;51.044;3.746;2023-07-13T08:20:02;24.70;99.90
13328;DHT22;6733;51.044;3.746;2023-07-13T08:22:28;24.80;99.90
13328;DHT22;6733;51.044;3.746;2023-07-13T08:24:54;24.70;99.90
13328;DHT22;6733;51.044;3.746;2023-07-13T08:27:24;24.60;99.90
13328;DHT22;6733;51.044;3.746;2023-07-13T08:29:51;24.60;99.90
13328;DHT22;6733;51.044;3.746;2023-07-13T08:32:19;24.20;99.90
13328;DHT22;6733;51.044;3.746;2023-07-13T08:34:46;24.20;99.90
13328;DHT22;6733;51.044;3.746;2023-07-13T08:37:12;24.70;99.90
13328;DHT22;6733;51.044;3.746;2023-07-13T08:39:38;24.50;99.90
13328;DHT22;6733;51.044;3.746;2023-07-13T08:45:12;23.90;99.90
13328;DHT22;6733;51.044;3.746;2023-07-13T08:47:47;23.30;99.90
13328;DHT22;6733;51.044;3.746;2023-07-13T08:50:17;23.40;99.90
13328;DHT22;6733;51.044;3.746;2023-07-13T08:52:45;23.40;99.90
13328;DHT22;6733;51.044;3.746;2023-07-13T08:55:18;23.00;99.90
13328;DHT22;6733;51.044;3.746;2023-07-13T08:57:59;23.40;99.90
13328;DHT22;6733;51.044;3.746;2023-07-13T09:00:34;24.10;99.90
13328;DHT22;6733;51.044;3.746;2023-07-13T09:03:05;24.50;99.90
13328;DHT22;6733;51.044;3.746;2023-07-13T09:05:39;24.70;99.90
13328;DHT22;6733;51.044;3.746;2023-07-13T09:10:53;25.30;99.90
13328;DHT22;6733;51.044;3.746;2023-07-13T09:13:47;25.40;99.90
13328;DHT22;6733;51.044;3.746;2023-07-13T09:16:17;26.10;99.90
13328;DHT22;6733;51.044;3.746;2023-07-13T09:18:47;26.00;99.90
13328;DHT22;6733;51.044;3.746;2023-07-13T09:23:43;26.20;99.90
13328;DHT22;6733;51.044;3.746;2023-07-13T09:26:18;26.70;99.90
13328;DHT22;6733;51.044;3.746;2023-07-13T09:28:46;26.90;99.90
13328;DHT22;6733;51.044;3.746;2023-07-13T09:31:24;27.00;99.30
13328;DHT22;6733;51.044;3.746;2023-07-13T09:33:52;26.70;99.40
13328;DHT22;6733;51.044;3.746;2023-07-13T09:36:21;26.80;99.40
13328;DHT22;6733;51.044;3.746;2023-07-13T09:39:13;26.20;99.60
13328;DHT22;6733;51.044;3.746;2023-07-13T09:44:51;25.30;99.90
13328;DHT22;6733;51.044;3.746;2023-07-13T09:47:24;25.50;99.90
13328;DHT22;6733;51.044;3.746;2023-07-13T09:49:59;26.20;99.90
13328;DHT22;6733;51.044;3.746;2023-07-13T09:52:26;26.40;99.40
13328;DHT22;6733;51.044;3.746;2023-07-13T09:54:54;25.70;99.40
13328;DHT22;6733;51.044;3.746;2023-07-13T09:57:27;25.60;99.90
13328;DHT22;6733;51.044;3.746;2023-07-13T09:59:54;25.70;99.90
13328;DHT22;6733;51.044;3.746;2023-07-13T10:02:30;25.40;99.90
13328;DHT22;6733;51.044;3.746;2023-07-13T10:05:03;25.10;99.90
13328;DHT22;6733;51.044;3.746;2023-07-13T10:07:32;24.80;99.90
13328;DHT22;6733;51.044;3.746;2023-07-13T10:12:39;25.20;99.90
13328;DHT22;6733;51.044;3.746;2023-07-13T10:15:18;25.90;99.40
13328;DHT22;6733;51.044;3.746;2023-07-13T10:17:45;26.30;99.70
13328;DHT22;6733;51.044;3.746;2023-07-13T10:20:12;26.50;98.40
13328;DHT22;6733;51.044;3.746;2023-07-13T10:22:53;26.90;98.20
13328;DHT22;6733;51.044;3.746;2023-07-13T10:25:25;27.80;97.00
13328;DHT22;6733;51.044;3.746;2023-07-13T10:27:54;28.20;95.80
13328;DHT22;6733;51.044;3.746;2023-07-13T10:30:24;28.60;95.40
13328;DHT22;6733;51.044;3.746;2023-07-13T10:32:58;28.10;93.70
13328;DHT22;6733;51.044;3.746;2023-07-13T10:35:27;27.90;94.30
13328;DHT22;6733;51.044;3.746;2023-07-13T10:40:29;27.50;95.20
13328;DHT22;6733;51.044;3.746;2023-07-13T10:42:57;27.20;95.20
13328;DHT22;6733;51.044;3.746;2023-07-13T10:45:25;26.60;95.60
13328;DHT22;6733;51.044;3.746;2023-07-13T10:47:53;26.00;96.20
13328;DHT22;6733;51.044;3.746;2023-07-13T10:50:27;25.50;96.40
13328;DHT22;6733;51.044;3.746;2023-07-13T10:53:17;25.10;97.80
13328;DHT22;6733;51.044;3.746;2023-07-13T10:58:31;22.80;99.90
13328;DHT22;6733;51.044;3.746;2023-07-13T11:01:17;21.50;99.90
13328;DHT22;6733;51.044;3.746;2023-07-13T11:06:17;20.50;99.90
13328;DHT22;6733;51.044;3.746;2023-07-13T11:11:48;20.20;99.90
13328;DHT22;6733;51.044;3.746;2023-07-13T11:16:47;20.40;99.90
13328;DHT22;6733;51.044;3.746;2023-07-13T11:22:02;20.50;99.90
13328;DHT22;6733;51.044;3.746;2023-07-13T11:25:01;20.60;99.90
13328;DHT22;6733;51.044;3.746;2023-07-13T11:27:51;20.70;99.90
13328;DHT22;6733;51.044;3.746;2023-07-13T11:30:25;20.80;99.90
13328;DHT22;6733;51.044;3.746;2023-07-13T11:38:39;21.70;99.90
13328;DHT22;6733;51.044;3.746;2023-07-13T11:41:18;21.90;99.90
13328;DHT22;6733;51.044;3.746;2023-07-13T11:43:47;22.30;99.90
13328;DHT22;6733;51.044;3.746;2023-07-13T11:46:22;22.50;99.90
13328;DHT22;6733;51.044;3.746;2023-07-13T11:48:50;22.70;99.90
13328;DHT22;6733;51.044;3.746;2023-07-13T11:51:27;22.60;99.90
13328;DHT22;6733;51.044;3.746;2023-07-13T11:53:55;22.90;99.90
13328;DHT22;6733;51.044;3.746;2023-07-13T11:56:23;22.80;99.90
13328;DHT22;6733;51.044;3.746;2023-07-13T11:58:56;22.60;99.90
13328;DHT22;6733;51.044;3.746;2023-07-13T12:01:29;22.70;99.90
13328;DHT22;6733;51.044;3.746;2023-07-13T12:04:03;23.20;99.90
13328;DHT22;6733;51.044;3.746;2023-07-13T12:06:34;23.30;99.90
13328;DHT22;6733;51.044;3.746;2023-07-13T12:09:11;22.80;99.90
13328;DHT22;6733;51.044;3.746;2023-07-13T12:11:46;22.80;99.90
13328;DHT22;6733;51.044;3.746;2023-07-13T12:14:15;23.10;99.90
13328;DHT22;6733;51.044;3.746;2023-07-13T12:16:43;23.30;99.90
13328;DHT22;6733;51.044;3.746;2023-07-13T12:19:27;23.40;99.90
13328;DHT22;6733;51.044;3.746;2023-07-13T12:21:56;23.50;99.90
13328;DHT22;6733;51.044;3.746;2023-07-13T12:24:23;23.60;99.90
13328;DHT22;6733;51.044;3.746;2023-07-13T12:27:03;23.60;99.90
13328;DHT22;6733;51.044;3.746;2023-07-13T12:29:31;23.80;99.90
13328;DHT22;6733;51.044;3.746;2023-07-13T12:31:57;23.90;99.90
13328;DHT22;6733;51.044;3.746;2023-07-13T12:34:25;24.00;99.90
13328;DHT22;6733;51.044;3.746;2023-07-13T12:37:02;24.00;99.90
13328;DHT22;6733;51.044;3.746;2023-07-13T12:39:37;24.50;99.90
13328;DHT22;6733;51.044;3.746;2023-07-13T12:42:33;24.90;99.90
13328;DHT22;6733;51.044;3.746;2023-07-13T12:45:25;25.10;99.90
13328;DHT22;6733;51.044;3.746;2023-07-13T12:47:56;24.80;99.90
13328;DHT22;6733;51.044;3.746;2023-07-13T12:50:34;24.70;99.90
13328;DHT22;6733;51.044;3.746;2023-07-13T12:53:04;24.50;99.90
13328;DHT22;6733;51.044;3.746;2023-07-13T12:55:46;24.40;99.90
13328;DHT22;6733;51.044;3.746;2023-07-13T12:58:27;24.20;99.90
13328;DHT22;6733;51.044;3.746;2023-07-13T13:00:58;24.20;99.90
13328;DHT22;6733;51.044;3.746;2023-07-13T13:03:37;24.20;99.90
13328;DHT22;6733;51.044;3.746;2023-07-13T13:06:06;24.50;99.90
13328;DHT22;6733;51.044;3.746;2023-07-13T13:08:34;24.70;99.90
13328;DHT22;6733;51.044;3.746;2023-07-13T13:11:03;24.90;99.90
13328;DHT22;6733;51.044;3.746;2023-07-13T13:13:30;24.90;99.90
13328;DHT22;6733;51.044;3.746;2023-07-13T13:16:00;24.90;99.90
13328;DHT22;6733;51.044;3.746;2023-07-13T13:18:27;24.80;99.90
13328;DHT22;6733;51.044;3.746;2023-07-13T13:20:53;24.70;99.90
13328;DHT22;6733;51.044;3.746;2023-07-13T13:23:20;24.70;99.90
13328;DHT22;6733;51.044;3.746;2023-07-13T13:25:50;24.80;99.90
13328;DHT22;6733;51.044;3.746;2023-07-13T13:28:19;25.00;99.90
13328;DHT22;6733;51.044;3.746;2023-07-13T13:30:47;25.30;99.90
13328;DHT22;6733;51.044;3.746;2023-07-13T13:33:15;25.30;99.90
13328;DHT22;6733;51.044;3.746;2023-07-13T13:35:42;25.60;99.90
13328;DHT22;6733;51.044;3.746;2023-07-13T13:38:12;26.00;99.90
13328;DHT22;6733;51.044;3.746;2023-07-13T13:40:41;26.50;99.90
13328;DHT22;6733;51.044;3.746;2023-07-13T13:43:22;26.90;99.90
13328;DHT22;6733;51.044;3.746;2023-07-13T13:45:53;27.00;99.90
13328;DHT22;6733;51.044;3.746;2023-07-13T13:48:26;27.40;99.90
13328;DHT22;6733;51.044;3.746;2023-07-13T13:50:57;27.90;98.90
13328;DHT22;6733;51.044;3.746;2023-07-13T13:53:23;28.00;98.00
13328;DHT22;6733;51.044;3.746;2023-07-13T13:55:50;28.00;98.40
13328;DHT22;6733;51.044;3.746;2023-07-13T13:58:18;28.40;95.30
13328;DHT22;6733;51.044;3.746;2023-07-13T14:00:45;28.80;94.70
13328;DHT22;6733;51.044;3.746;2023-07-13T14:03:19;28.40;93.50
13328;DHT22;6733;51.044;3.746;2023-07-13T14:05:47;28.80;93.70
13328;DHT22;6733;51.044;3.746;2023-07-13T14:08:16;29.40;92.00
13328;DHT22;6733;51.044;3.746;2023-07-13T14:10:47;30.00;90.80
13328;DHT22;6733;51.044;3.746;2023-07-13T14:13:20;30.00;90.90
13328;DHT22;6733;51.044;3.746;2023-07-13T14:15:47;29.10;90.70
13328;DHT22;6733;51.044;3.746;2023-07-13T14:18:14;30.10;89.50
13328;DHT22;6733;51.044;3.746;2023-07-13T14:20:44;30.50;89.70
13328;DHT22;6733;51.044;3.746;2023-07-13T14:23:14;30.20;90.40
13328;DHT22;6733;51.044;3.746;2023-07-13T14:25:41;30.20;87.50
13328;DHT22;6733;51.044;3.746;2023-07-13T14:30:42;32.00;84.30
13328;DHT22;6733;51.044;3.746;2023-07-13T14:33:10;32.50;80.20
13328;DHT22;6733;51.044;3.746;2023-07-13T14:35:37;33.20;79.30
13328;DHT22;6733;51.044;3.746;2023-07-13T14:38:04;33.20;77.90
13328;DHT22;6733;51.044;3.746;2023-07-13T14:40:31;34.00;76.20
13328;DHT22;6733;51.044;3.746;2023-07-13T14:42:58;34.60;74.70
13328;DHT22;6733;51.044;3.746;2023-07-13T14:45:25;35.10;71.30
13328;DHT22;6733;51.044;3.746;2023-07-13T14:47:52;34.20;68.70
13328;DHT22;6733;51.044;3.746;2023-07-13T14:50:20;34.80;68.10
13328;DHT22;6733;51.044;3.746;2023-07-13T14:52:47;34.30;67.70
13328;DHT22;6733;51.044;3.746;2023-07-13T14:55:17;34.50;67.20
13328;DHT22;6733;51.044;3.746;2023-07-13T14:57:44;34.10;66.60
13328;DHT22;6733;51.044;3.746;2023-07-13T15:00:16;34.10;67.30
13328;DHT22;6733;51.044;3.746;2023-07-13T15:02:47;34.40;65.10
13328;DHT22;6733;51.044;3.746;2023-07-13T15:05:21;32.70;67.00
13328;DHT22;6733;51.044;3.746;2023-07-13T15:07:49;31.60;70.50
13328;DHT22;6733;51.044;3.746;2023-07-13T15:10:18;30.70;71.20
13328;DHT22;6733;51.044;3.746;2023-07-13T15:12:44;30.10;72.90
13328;DHT22;6733;51.044;3.746;2023-07-13T15:15:11;29.40;76.30
13328;DHT22;6733;51.044;3.746;2023-07-13T15:17:41;29.30;78.20
13328;DHT22;6733;51.044;3.746;2023-07-13T15:20:28;29.10;78.90
13328;DHT22;6733;51.044;3.746;2023-07-13T15:22:55;28.80;79.70
13328;DHT22;6733;51.044;3.746;2023-07-13T15:25:24;29.20;80.00
13328;DHT22;6733;51.044;3.746;2023-07-13T15:27:54;31.10;77.00
13328;DHT22;6733;51.044;3.746;2023-07-13T15:30:21;31.70;73.50
13328;DHT22;6733;51.044;3.746;2023-07-13T15:32:48;33.10;71.60
13328;DHT22;6733;51.044;3.746;2023-07-13T15:35:19;34.80;68.20
13328;DHT22;6733;51.044;3.746;2023-07-13T15:37:46;35.00;64.00
13328;DHT22;6733;51.044;3.746;2023-07-13T15:40:13;33.80;64.30
13328;DHT22;6733;51.044;3.746;2023-07-13T15:42:44;31.90;65.80
13328;DHT22;6733;51.044;3.746;2023-07-13T15:45:20;31.50;68.50
13328;DHT22;6733;51.044;3.746;2023-07-13T15:47:48;33.90;67.20
13328;DHT22;6733;51.044;3.746;2023-07-13T15:50:23;35.50;63.50
13328;DHT22;6733;51.044;3.746;2023-07-13T15:52:55;36.40;60.60
13328;DHT22;6733;51.044;3.746;2023-07-13T15:55:24;35.60;58.70
13328;DHT22;6733;51.044;3.746;2023-07-13T15:57:51;34.80;59.00
13328;DHT22;6733;51.044;3.746;2023-07-13T16:00:23;36.20;59.60
13328;DHT22;6733;51.044;3.746;2023-07-13T16:02:50;37.40;57.10
13328;DHT22;6733;51.044;3.746;2023-07-13T16:05:18;36.90;57.70
13328;DHT22;6733;51.044;3.746;2023-07-13T16:07:46;37.50;56.60
13328;DHT22;6733;51.044;3.746;2023-07-13T16:10:18;38.50;56.20
13328;DHT22;6733;51.044;3.746;2023-07-13T16:12:45;39.30;54.50
13328;DHT22;6733;51.044;3.746;2023-07-13T16:15:15;39.40;52.70
13328;DHT22;6733;51.044;3.746;2023-07-13T16:17:43;38.10;53.00
13328;DHT22;6733;51.044;3.746;2023-07-13T16:20:10;38.10;54.00
13328;DHT22;6733;51.044;3.746;2023-07-13T16:22:45;38.10;53.20
13328;DHT22;6733;51.044;3.746;2023-07-13T16:25:14;39.00;52.30
13328;DHT22;6733;51.044;3.746;2023-07-13T16:27:40;39.10;51.30
13328;DHT22;6733;51.044;3.746;2023-07-13T16:30:15;38.50;51.90
13328;DHT22;6733;51.044;3.746;2023-07-13T16:32:44;39.80;51.50
13328;DHT22;6733;51.044;3.746;2023-07-13T16:35:11;39.80;49.90
13328;DHT22;6733;51.044;3.746;2023-07-13T16:37:37;40.40;50.30
13328;DHT22;6733;51.044;3.746;2023-07-13T16:40:23;38.80;49.80
13328;DHT22;6733;51.044;3.746;2023-07-13T16:42:55;36.10;52.90